Pagrindinis puslapis
METAR-TAF:

METAR-TAF

Oro uostai :

Røst, Norvegija

platuma: 67-31N, ilguma: 012-06E, Aukštis: 4 m

Dabartinis oras

Ataskaita buvo paskelbta 7 valandos ir 59 minutes, ne 07:50 UTC
Vėjas 23 kt iš Pietų su gūsio iki 33 kt
Temperatūra 5°C
Drėgmė 81%
Slėgis 974 hPa
Matomumas 10 km arba daugiau
Mažai debesys ne aukštis 1200 ft
Išsisklaidę debesys ne aukštis 1800 ft
Liūtis kaimynystėje

METAR: ENRS 210750Z 17023G33KT 9999 VCSH FEW012 SCT018 05/02 Q0974

Laikas: 16:49 (15:49 UTC)


TAF: trūkstamas

Orai ataskaitas ir orų prognozės (METAR, TAF).

turimą stotys yra geltonos ir raudonos taškus žemėlapyje.

Perkelti pele per norėdami pamatyti stoties vardą.

Tada spustelėkite, norėdami matyti oro stebėjimo ir prognozės.

Norėdami pakeisti žemėlapį: spustelėkite ant žalios mygtukų su juodo kryžiaus žemyn,; žalią mygtuką su brūkšneliu, jei norite nutolinti; arba žalių rodyklių gretimoms žemėlapius.


METAR-TAF: